Grand Celebration — C6BP6 — position and weather

sailwx.info

Track history (hours):
 
Tides and Currents Weather Stations Pressure Air Temp Water Temp Dewpoint Dewpoint Depression Visibility Wind Speed Wind Dir Waves Ship Positions

Grand Celebration

Last reported at 2017-Sep-21 03:36 UTC. Time now 2017-Sep-24 15:51 UTC.
Position N 25°39' W 079°28'.

Length 223 m; draft 7.9 m.

Type: Ship. MMSI: 311000328.

Date/timePositionNaut miles runAvg speedWind from/ knotsBaromVisibWave heightAir tempDewpointWater temp
2017-Sep-21 03:36N 25°39' W 079°28'216.9
2017-Sep-21 03:30N 25°41' W 079°28'816.8
2017-Sep-21 03:00N 25°50' W 079°28'1016.4
2017-Sep-21 02:22N 25°60' W 079°29'616.1
2017-Sep-21 02:00N 26°06' W 079°29'815.8
2017-Sep-21 01:30N 26°13' W 079°31'915.0
2017-Sep-21 00:53N 26°22' W 079°35'514.3
2017-Sep-21 00:30N 26°26' W 079°39'713.5
2017-Sep-21 00:00N 26°32' W 079°44'1611.0
2017-Sep-20 22:31N 26°43' W 079°57'411.7
2017-Sep-20 22:12N 26°46' W 079°60'2 9.1
2017-Sep-20 22:00N 26°46' W 080°02'1 1.0
2017-Sep-20 20:36N 26°46' W 080°03'0 0.0
2017-Sep-20 14:48N 26°46' W 080°03'0 0.0
2017-Sep-20 13:48N 26°46' W 080°03'0 0.0
2017-Sep-20 13:30N 26°46' W 080°03'0 0.0
2017-Sep-20 12:17N 26°46' W 080°03'0 0.0
2017-Sep-20 11:53N 26°46' W 080°03'0 0.1
2017-Sep-20 11:13N 26°46' W 080°03'2 6.8
2017-Sep-20 10:59N 26°46' W 080°01'5 0.1
2017-Sep-18 22:49N 26°45' W 079°56'411.7
2017-Sep-18 22:30N 26°46' W 080°00'3 0.3
2017-Sep-18 12:28N 26°46' W 080°03'0 0.2
2017-Sep-18 11:09N 26°46' W 080°03'1 7.4
2017-Sep-18 10:59N 26°46' W 080°02'5 7.3
2017-Sep-18 10:15N 26°44' W 079°56'3 6.2
2017-Sep-18 09:47N 26°43' W 079°53'3 0.1
2017-Sep-16 22:46N 26°45' W 079°55'312.4
2017-Sep-16 22:30N 26°46' W 079°59'3 6.8
2017-Sep-16 22:00N 26°46' W 080°03'0 0.0
2017-Sep-16 13:19N 26°46' W 080°03'0 0.0
2017-Sep-16 12:54N 26°46' W 080°03'  
2017-Sep-13 18:14N 26°46' W 080°03'2 8.0
2017-Sep-13 18:00N 26°46' W 080°01'59 4.7
2017-Sep-13 05:21N 25°52' W 079°35'10 9.0
2017-Sep-13 04:17N 25°42' W 079°36'  
Track history (hours):
 
Tides and Currents Weather Stations Pressure Air Temp Water Temp Dewpoint Dewpoint Depression Visibility Wind Speed Wind Dir Waves Ship Positions

Grand Celebration

Last reported at 2017-Sep-21 03:36 UTC. Time now 2017-Sep-24 15:51 UTC.
Position N 25°39' W 079°28'.

Length 223 m; draft 7.9 m.

Type: Ship. MMSI: 311000328.

Date/timePositionNaut miles runAvg speedWind from/ knotsBaromVisibWave heightAir tempDewpointWater temp
2017-Sep-21 03:36N 25°39' W 079°28'216.9
2017-Sep-21 03:30N 25°41' W 079°28'816.8
2017-Sep-21 03:00N 25°50' W 079°28'1016.4
2017-Sep-21 02:22N 25°60' W 079°29'616.1
2017-Sep-21 02:00N 26°06' W 079°29'815.8
2017-Sep-21 01:30N 26°13' W 079°31'915.0
2017-Sep-21 00:53N 26°22' W 079°35'514.3
2017-Sep-21 00:30N 26°26' W 079°39'713.5
2017-Sep-21 00:00N 26°32' W 079°44'1611.0
2017-Sep-20 22:31N 26°43' W 079°57'411.7
2017-Sep-20 22:12N 26°46' W 079°60'2 9.1
2017-Sep-20 22:00N 26°46' W 080°02'1 1.0
2017-Sep-20 20:36N 26°46' W 080°03'0 0.0
2017-Sep-20 14:48N 26°46' W 080°03'0 0.0
2017-Sep-20 13:48N 26°46' W 080°03'0 0.0
2017-Sep-20 13:30N 26°46' W 080°03'0 0.0
2017-Sep-20 12:17N 26°46' W 080°03'0 0.0
2017-Sep-20 11:53N 26°46' W 080°03'0 0.1
2017-Sep-20 11:13N 26°46' W 080°03'2 6.8
2017-Sep-20 10:59N 26°46' W 080°01'5 0.1
2017-Sep-18 22:49N 26°45' W 079°56'411.7
2017-Sep-18 22:30N 26°46' W 080°00'3 0.3
2017-Sep-18 12:28N 26°46' W 080°03'0 0.2
2017-Sep-18 11:09N 26°46' W 080°03'1 7.4
2017-Sep-18 10:59N 26°46' W 080°02'5 7.3
2017-Sep-18 10:15N 26°44' W 079°56'3 6.2
2017-Sep-18 09:47N 26°43' W 079°53'3 0.1
2017-Sep-16 22:46N 26°45' W 079°55'312.4
2017-Sep-16 22:30N 26°46' W 079°59'3 6.8
2017-Sep-16 22:00N 26°46' W 080°03'0 0.0
2017-Sep-16 13:19N 26°46' W 080°03'0 0.0
2017-Sep-16 12:54N 26°46' W 080°03'  
2017-Sep-13 18:14N 26°46' W 080°03'2 8.0
2017-Sep-13 18:00N 26°46' W 080°01'59 4.7
2017-Sep-13 05:21N 25°52' W 079°35'10 9.0
2017-Sep-13 04:17N 25°42' W 079°36'  

Dump ship's entire track history